Time;durP1;ratioP1;P1;durP2;ratioP2;P2;SDS_P1;SDS_P2;PMS_P1;PMS_P2;Temp;Humidity;BMP_temperature;BMP_pressure;BME280_temperature;BME280_humidity;BME280_pressure;Samples;Min_cycle;Max_cycle;Signal;HPM_P1;HPM_P2
2022/11/23 00:04:44;;;;;;;8.15;1.23;;;;;;;;;;20912535;28;20052;-57
2022/11/23 00:14:46;;;;;;;3.55;1.00;;;;;;;;;;20912358;28;20409;-56
2022/11/23 00:24:49;;;;;;;3.50;0.95;;;;;;;;;;20911967;28;20053;-56
2022/11/23 00:34:51;;;;;;;6.75;1.48;;;;;;;;;;20911692;28;20081;-58
2022/11/23 00:44:53;;;;;;;6.05;1.80;;;;;;;;;;20912296;28;20477;-57
2022/11/23 00:54:55;;;;;;;5.50;1.42;;;;;;;;;;20924419;28;20052;-56
2022/11/23 01:04:57;;;;;;;6.93;1.48;;;;;;;;;;20926830;28;20402;-56
2022/11/23 01:14:59;;;;;;;4.07;1.42;;;;;;;;;;20924987;28;20175;-57
2022/11/23 01:25:02;;;;;;;5.07;1.50;;;;;;;;;;20924352;28;20470;-57
2022/11/23 01:35:04;;;;;;;6.55;1.52;;;;;;;;;;20924009;28;20041;-58
2022/11/23 01:45:25;;;;;;;6.05;1.55;;;;;;;;;;20922765;28;20049;-58
2022/11/23 01:55:27;;;;;;;5.55;1.30;;;;;;;;;;20922469;28;20045;-59
2022/11/23 02:05:31;;;;;;;2.65;0.95;;;;;;;;;;20921466;28;20059;-58
2022/11/23 02:15:34;;;;;;;2.80;0.70;;;;;;;;;;20919958;28;20060;-56
2022/11/23 02:25:45;;;;;;;2.70;0.60;;;;;;;;;;20919422;28;20110;-56
2022/11/23 02:35:49;;;;;;;2.15;0.50;;;;;;;;;;20918831;28;20049;-57
2022/11/23 02:45:55;;;;;;;3.45;0.70;;;;;;;;;;20917791;28;20088;-56
2022/11/23 02:56:03;;;;;;;2.80;1.17;;;;;;;;;;20917172;28;20431;-59
2022/11/23 03:06:06;;;;;;;2.10;0.93;;;;;;;;;;20916108;28;20045;-57
2022/11/23 03:16:16;;;;;;;2.67;1.00;;;;;;;;;;20915109;28;20048;-56
2022/11/23 03:26:26;;;;;;;2.65;0.60;;;;;;;;;;20914143;28;20095;-56
2022/11/23 03:36:30;;;;;;;4.43;0.52;;;;;;;;;;20914384;28;20060;-59
2022/11/23 03:46:35;;;;;;;1.48;0.43;;;;;;;;;;20914608;28;20049;-58
2022/11/23 03:56:39;;;;;;;1.88;0.30;;;;;;;;;;20913024;28;20053;-60
2022/11/23 04:06:42;;;;;;;1.08;0.35;;;;;;;;;;20911737;28;20489;-56
2022/11/23 04:16:45;;;;;;;1.75;0.38;;;;;;;;;;20912840;28;20467;-58
2022/11/23 04:26:48;;;;;;;1.10;0.35;;;;;;;;;;20921988;28;20057;-57
2022/11/23 04:36:51;;;;;;;1.55;0.20;;;;;;;;;;20929246;28;20049;-58
2022/11/23 04:46:54;;;;;;;0.57;0.10;;;;;;;;;;20927320;28;20052;-58
2022/11/23 04:56:56;;;;;;;3.45;0.32;;;;;;;;;;20927033;28;20488;-59
2022/11/23 05:06:58;;;;;;;0.93;0.28;;;;;;;;;;20925873;28;20485;-58
2022/11/23 05:17:01;;;;;;;0.80;0.35;;;;;;;;;;20925730;28;20049;-58
2022/11/23 05:27:04;;;;;;;2.08;0.40;;;;;;;;;;20923934;28;20052;-60
2022/11/23 05:37:07;;;;;;;2.53;1.00;;;;;;;;;;20923403;28;20048;-59
2022/11/23 05:47:09;;;;;;;3.25;0.55;;;;;;;;;;20922403;28;20544;-60
2022/11/23 05:57:11;;;;;;;1.50;0.95;;;;;;;;;;20922424;28;20508;-60
2022/11/23 06:07:14;;;;;;;3.58;0.70;;;;;;;;;;20921406;28;20057;-60
2022/11/23 06:17:17;;;;;;;4.13;1.10;;;;;;;;;;20921277;28;20056;-58
2022/11/23 06:27:20;;;;;;;2.70;0.73;;;;;;;;;;20920305;28;20060;-60
2022/11/23 06:37:22;;;;;;;3.08;0.73;;;;;;;;;;20919745;28;20486;-57
2022/11/23 06:47:24;;;;;;;4.43;1.13;;;;;;;;;;20917889;28;20057;-57
2022/11/23 06:57:26;;;;;;;5.18;1.13;;;;;;;;;;20917886;28;20041;-55
2022/11/23 07:07:28;;;;;;;5.53;2.03;;;;;;;;;;20915199;28;20057;-56
2022/11/23 07:17:31;;;;;;;10.65;2.00;;;;;;;;;;20916534;28;20047;-57
2022/11/23 07:27:34;;;;;;;6.90;1.77;;;;;;;;;;20915108;28;20045;-57
2022/11/23 07:37:37;;;;;;;10.35;1.40;;;;;;;;;;20914966;28;20094;-58
2022/11/23 07:47:39;;;;;;;8.18;1.75;;;;;;;;;;20913495;28;20255;-57
2022/11/23 07:57:41;;;;;;;6.53;1.60;;;;;;;;;;20913651;28;20053;-58
2022/11/23 08:07:47;;;;;;;6.45;1.30;;;;;;;;;;20912336;28;20056;-56
2022/11/23 08:17:49;;;;;;;6.53;1.55;;;;;;;;;;20913697;28;20465;-57
2022/11/23 08:28:02;;;;;;;7.97;1.75;;;;;;;;;;20911739;28;20420;-57
2022/11/23 08:38:05;;;;;;;8.98;1.80;;;;;;;;;;20912385;28;20045;-57
2022/11/23 08:48:07;;;;;;;6.65;1.65;;;;;;;;;;20911940;28;20049;-56
2022/11/23 08:58:10;;;;;;;6.53;1.73;;;;;;;;;;20910377;28;20118;-56
2022/11/23 09:08:12;;;;;;;9.20;2.35;;;;;;;;;;20911753;28;20048;-56
2022/11/23 09:18:14;;;;;;;10.57;1.80;;;;;;;;;;20924570;28;20088;-57
2022/11/23 09:28:23;;;;;;;5.40;1.33;;;;;;;;;;20923230;28;20052;-58
2022/11/23 09:38:26;;;;;;;6.60;1.60;;;;;;;;;;20924493;28;20444;-57
2022/11/23 09:48:34;;;;;;;6.50;1.60;;;;;;;;;;20922722;28;20477;-56
2022/11/23 09:58:40;;;;;;;6.15;1.33;;;;;;;;;;20921570;28;20049;-57
2022/11/23 10:08:44;;;;;;;5.28;0.90;;;;;;;;;;20922291;28;20048;-57
2022/11/23 10:18:51;;;;;;;3.58;1.05;;;;;;;;;;20919971;28;20049;-58
2022/11/23 10:28:53;;;;;;;3.88;0.90;;;;;;;;;;20918765;28;20049;-57
2022/11/23 10:39:00;;;;;;;4.40;0.70;;;;;;;;;;20919067;28;20386;-61
2022/11/23 10:49:08;;;;;;;5.68;0.80;;;;;;;;;;20917887;28;20055;-59
2022/11/23 10:59:24;;;;;;;2.65;0.50;;;;;;;;;;20917825;28;20145;-61
2022/11/23 11:09:31;;;;;;;1.92;0.43;;;;;;;;;;20916369;28;20052;-58
2022/11/23 11:19:34;;;;;;;2.03;0.82;;;;;;;;;;20914751;28;20049;-57
2022/11/23 11:29:36;;;;;;;1.40;0.40;;;;;;;;;;20914259;28;20053;-58
2022/11/23 11:39:41;;;;;;;0.63;0.30;;;;;;;;;;20913174;28;20057;-59
2022/11/23 11:49:45;;;;;;;1.83;0.30;;;;;;;;;;20914127;28;20044;-60
2022/11/23 11:59:49;;;;;;;7.47;2.55;;;;;;;;;;20912215;28;20049;-56
2022/11/23 12:09:55;;;;;;;1.13;0.50;;;;;;;;;;20912237;28;20059;-56
2022/11/23 12:20:06;;;;;;;0.88;0.20;;;;;;;;;;20912191;28;20045;-57
2022/11/23 12:30:14;;;;;;;2.25;0.30;;;;;;;;;;20912005;28;20520;-57
2022/11/23 12:40:23;;;;;;;1.73;0.52;;;;;;;;;;20910872;28;20053;-58
2022/11/23 12:50:34;;;;;;;0.75;0.32;;;;;;;;;;20925550;28;20461;-58
2022/11/23 13:00:39;;;;;;;1.25;0.75;;;;;;;;;;20926313;28;20136;-57
2022/11/23 13:10:48;;;;;;;0.93;0.50;;;;;;;;;;20925745;28;20049;-60
2022/11/23 13:20:50;;;;;;;;;;;;;;;;;;20924395;28;20060;-59
2022/11/23 13:31:13;;;;;;;1.55;0.63;;;;;;;;;;20923436;28;20395;-59
2022/11/23 13:41:33;;;;;;;1.48;0.40;;;;;;;;;;20923406;28;20517;-61
2022/11/23 13:51:35;;;;;;;0.80;0.30;;;;;;;;;;20922504;28;20057;-59
2022/11/23 14:01:56;;;;;;;2.38;0.85;;;;;;;;;;20922099;28;20048;-60
2022/11/23 14:11:58;;;;;;;0.63;0.30;;;;;;;;;;20921870;28;20551;-61
2022/11/23 14:22:13;;;;;;;0.85;0.40;;;;;;;;;;20921146;28;20055;-61
2022/11/23 14:32:34;;;;;;;0.38;0.13;;;;;;;;;;20918185;28;20191;-60
2022/11/23 14:42:39;;;;;;;0.32;0.20;;;;;;;;;;20919291;28;20059;-56
2022/11/23 14:52:41;;;;;;;1.30;0.57;;;;;;;;;;20919181;28;20041;-58
2022/11/23 15:02:44;;;;;;;3.67;0.57;;;;;;;;;;20917198;28;20052;-56
2022/11/23 15:12:48;;;;;;;3.92;0.73;;;;;;;;;;20915503;28;20060;-59
2022/11/23 15:22:50;;;;;;;3.53;0.80;;;;;;;;;;20915635;28;20086;-60
2022/11/23 15:32:56;;;;;;;0.57;0.40;;;;;;;;;;20915007;28;20106;-61
2022/11/23 15:42:58;;;;;;;1.50;0.55;;;;;;;;;;20913510;28;20085;-60
2022/11/23 15:53:01;;;;;;;4.20;1.27;;;;;;;;;;20914291;28;20048;-59
2022/11/23 16:03:22;;;;;;;4.07;1.23;;;;;;;;;;20914083;28;20397;-63
2022/11/23 16:13:34;;;;;;;3.33;0.90;;;;;;;;;;20913355;28;20501;-59
2022/11/23 16:23:40;;;;;;;3.28;0.90;;;;;;;;;;20924690;28;20049;-64
2022/11/23 16:33:42;;;;;;;5.75;0.90;;;;;;;;;;20928632;28;20096;-71
2022/11/23 16:43:44;;;;;;;4.97;1.00;;;;;;;;;;20928853;28;20049;-63
2022/11/23 16:53:46;;;;;;;3.88;0.90;;;;;;;;;;20927204;28;20041;-62
2022/11/23 17:03:48;;;;;;;4.15;1.35;;;;;;;;;;20926704;28;20139;-63
2022/11/23 17:13:51;;;;;;;3.55;1.30;;;;;;;;;;20926009;28;20056;-63
2022/11/23 17:23:53;;;;;;;3.85;1.25;;;;;;;;;;20924799;28;20139;-66
2022/11/23 17:33:56;;;;;;;4.63;1.55;;;;;;;;;;20923439;28;20040;-65
2022/11/23 17:43:58;;;;;;;3.70;1.60;;;;;;;;;;20923325;28;20053;-67
2022/11/23 17:54:00;;;;;;;3.63;1.95;;;;;;;;;;20923190;28;20048;-62
2022/11/23 18:04:03;;;;;;;5.35;2.60;;;;;;;;;;20922197;28;20056;-64
2022/11/23 18:14:09;;;;;;;6.20;2.13;;;;;;;;;;20920877;28;20056;-66
2022/11/23 18:24:12;;;;;;;3.25;1.50;;;;;;;;;;20920770;28;20053;-68
2022/11/23 18:34:14;;;;;;;5.25;2.72;;;;;;;;;;20920719;28;20072;-72
2022/11/23 18:44:16;;;;;;;4.03;1.65;;;;;;;;;;20920929;28;20075;-69
2022/11/23 18:54:18;;;;;;;4.35;1.75;;;;;;;;;;20918594;28;20500;-67
2022/11/23 19:04:20;;;;;;;3.45;1.48;;;;;;;;;;20919362;28;20592;-63
2022/11/23 19:14:22;;;;;;;5.80;2.15;;;;;;;;;;20915878;28;20041;-64
2022/11/23 19:24:25;;;;;;;3.75;1.70;;;;;;;;;;20915348;28;20057;-61
2022/11/23 19:34:26;;;;;;;2.72;1.85;;;;;;;;;;20913863;28;20056;-58
2022/11/23 19:44:28;;;;;;;4.47;2.50;;;;;;;;;;20913226;28;20436;-59
2022/11/23 19:54:31;;;;;;;5.80;2.20;;;;;;;;;;20913381;28;20400;-60
2022/11/23 20:04:32;;;;;;;3.45;1.70;;;;;;;;;;20912495;28;20102;-60
2022/11/23 20:14:34;;;;;;;4.95;1.85;;;;;;;;;;20913337;28;20481;-59
2022/11/23 20:24:37;;;;;;;2.85;1.67;;;;;;;;;;20911888;28;20049;-60
2022/11/23 20:34:39;;;;;;;3.50;1.30;;;;;;;;;;20911436;28;20045;-60
2022/11/23 20:44:41;;;;;;;2.83;1.38;;;;;;;;;;20911053;28;20076;-60
2022/11/23 20:54:43;;;;;;;3.90;1.88;;;;;;;;;;20911137;28;20114;-58
2022/11/23 21:04:45;;;;;;;5.28;2.03;;;;;;;;;;20914756;28;20057;-62
2022/11/23 21:14:48;;;;;;;3.35;2.10;;;;;;;;;;20925633;28;20045;-61
2022/11/23 21:24:51;;;;;;;4.13;2.58;;;;;;;;;;20924416;28;20056;-61
2022/11/23 21:34:52;;;;;;;4.10;2.75;;;;;;;;;;20924284;28;20045;-59
2022/11/23 21:44:54;;;;;;;5.20;3.28;;;;;;;;;;20923773;28;20056;-60
2022/11/23 21:54:56;;;;;;;6.63;2.88;;;;;;;;;;20923669;28;20492;-60
2022/11/23 22:04:58;;;;;;;5.90;3.33;;;;;;;;;;20922391;28;20472;-58
2022/11/23 22:15:01;;;;;;;4.78;2.95;;;;;;;;;;20919920;28;20079;-61
2022/11/23 22:25:04;;;;;;;4.07;2.45;;;;;;;;;;20921379;28;20551;-61
2022/11/23 22:35:06;;;;;;;6.97;2.47;;;;;;;;;;20920155;28;20041;-61
2022/11/23 22:45:08;;;;;;;2.92;1.90;;;;;;;;;;20919210;28;20084;-61
2022/11/23 22:55:10;;;;;;;4.28;1.77;;;;;;;;;;20918298;28;20136;-59
2022/11/23 23:05:13;;;;;;;4.10;2.15;;;;;;;;;;20917473;28;20146;-61
2022/11/23 23:15:17;;;;;;;9.65;2.17;;;;;;;;;;20917135;28;20052;-60
2022/11/23 23:25:20;;;;;;;4.53;1.90;;;;;;;;;;20915446;28;20056;-62
2022/11/23 23:35:23;;;;;;;4.35;1.23;;;;;;;;;;20913581;28;20080;-62
2022/11/23 23:45:25;;;;;;;3.63;1.40;;;;;;;;;;20914868;28;20195;-63
2022/11/23 23:55:28;;;;;;;8.00;1.45;;;;;;;;;;20913929;28;20045;-61
